Time;durP1;ratioP1;P1;durP2;ratioP2;P2;SDS_P1;SDS_P2;PMS_P1;PMS_P2;Temp;Humidity;BMP_temperature;BMP_pressure;BME280_temperature;BME280_humidity;BME280_pressure;Samples;Min_cycle;Max_cycle;Signal;HPM_P1;HPM_P2
2023/03/11 00:01:25;;;;;;;0.20;0.20;;;;;;;;;;6172661;23;20013;-76
2023/03/11 00:04:12;;;;;;;0.10;0.10;;;;;;;;;;6194813;23;20615;-76
2023/03/11 00:06:58;;;;;;;0.10;0.10;;;;;;;;;;6195223;23;20016;-76
2023/03/11 00:09:44;;;;;;;0.17;0.17;;;;;;;;;;6194835;23;20028;-76
2023/03/11 00:12:31;;;;;;;0.20;0.20;;;;;;;;;;6195579;23;20070;-76
2023/03/11 00:15:19;;;;;;;0.13;0.13;;;;;;;;;;6193762;23;20040;-76
2023/03/11 00:18:05;;;;;;;0.20;0.20;;;;;;;;;;6195779;23;20019;-76
2023/03/11 00:20:50;;;;;;;0.13;0.13;;;;;;;;;;6195819;23;20504;-76
2023/03/11 00:23:36;;;;;;;0.15;0.15;;;;;;;;;;6174195;23;20008;-76
2023/03/11 00:26:22;;;;;;;0.10;0.10;;;;;;;;;;6194774;23;20266;-76
2023/03/11 00:29:07;;;;;;;0.20;0.20;;;;;;;;;;6195501;23;20592;-76
2023/03/11 00:31:54;;;;;;;0.10;0.10;;;;;;;;;;6173331;23;20009;-76
2023/03/11 00:34:39;;;;;;;0.20;0.20;;;;;;;;;;6174210;23;20012;-76
2023/03/11 00:37:25;;;;;;;0.20;0.20;;;;;;;;;;6195397;23;20008;-76
2023/03/11 00:40:12;;;;;;;0.20;0.20;;;;;;;;;;6196104;23;20016;-76
2023/03/11 00:42:58;;;;;;;0.10;0.10;;;;;;;;;;6195365;23;20013;-76
2023/03/11 00:45:44;;;;;;;0.15;0.15;;;;;;;;;;6174099;23;20067;-76
2023/03/11 00:48:31;;;;;;;0.20;0.20;;;;;;;;;;6172943;23;20015;-76
2023/03/11 00:51:17;;;;;;;0.20;0.20;;;;;;;;;;6173609;23;20016;-76
2023/03/11 00:54:03;;;;;;;0.15;0.15;;;;;;;;;;6163693;23;20021;-76
2023/03/11 00:56:49;;;;;;;0.20;0.20;;;;;;;;;;6165958;23;20567;-76
2023/03/11 00:59:37;;;;;;;0.20;0.20;;;;;;;;;;6164971;23;20325;-76
2023/03/11 01:02:23;;;;;;;0.10;0.10;;;;;;;;;;6163884;23;20021;-76
2023/03/11 01:05:09;;;;;;;0.20;0.20;;;;;;;;;;6165977;23;20449;-76
2023/03/11 01:07:55;;;;;;;0.20;0.20;;;;;;;;;;6146182;23;20013;-76
2023/03/11 01:10:40;;;;;;;0.10;0.10;;;;;;;;;;6146426;23;20025;-76
2023/03/11 01:13:27;;;;;;;0.20;0.20;;;;;;;;;;6165277;23;20027;-76
2023/03/11 01:16:14;;;;;;;0.20;0.20;;;;;;;;;;6166390;23;20024;-76
2023/03/11 01:18:59;;;;;;;0.20;0.20;;;;;;;;;;6168282;23;20009;-75
2023/03/11 01:21:45;;;;;;;0.10;0.10;;;;;;;;;;6145516;23;20397;-76
2023/03/11 01:24:31;;;;;;;0.20;0.20;;;;;;;;;;6164233;23;20347;-76
2023/03/11 01:27:19;;;;;;;0.20;0.20;;;;;;;;;;6164631;23;20355;-75
2023/03/11 01:30:05;;;;;;;0.20;0.20;;;;;;;;;;6163558;23;20027;-76
2023/03/11 01:32:51;;;;;;;0.20;0.20;;;;;;;;;;6143947;23;20013;-76
2023/03/11 01:35:38;;;;;;;0.10;0.10;;;;;;;;;;6164416;23;20009;-76
2023/03/11 01:38:24;;;;;;;0.10;0.10;;;;;;;;;;6165476;23;20055;-76
2023/03/11 01:41:10;;;;;;;0.20;0.20;;;;;;;;;;6165870;23;20376;-76
2023/03/11 01:43:56;;;;;;;0.13;0.13;;;;;;;;;;6164441;23;20013;-76
2023/03/11 01:46:53;;;;;;;0.20;0.20;;;;;;;;;;6164281;23;20361;-77
2023/03/11 01:49:47;;;;;;;0.10;0.10;;;;;;;;;;6163699;23;20021;-78
2023/03/11 01:52:33;;;;;;;0.20;0.20;;;;;;;;;;6179210;23;20017;-78
2023/03/11 01:55:19;;;;;;;0.20;0.20;;;;;;;;;;6172700;23;20009;-78
2023/03/11 01:58:07;;;;;;;0.10;0.10;;;;;;;;;;6172044;23;20008;-78
2023/03/11 02:00:54;;;;;;;0.10;0.10;;;;;;;;;;6172374;23;20050;-78
2023/03/11 02:03:41;;;;;;;0.20;0.20;;;;;;;;;;6174452;23;20422;-78
2023/03/11 02:06:27;;;;;;;0.10;0.10;;;;;;;;;;6172855;23;20063;-78
2023/03/11 02:09:13;;;;;;;0.20;0.20;;;;;;;;;;6172972;23;20389;-78
2023/03/11 02:11:59;;;;;;;0.20;0.20;;;;;;;;;;6193921;23;20012;-78
2023/03/11 02:14:46;;;;;;;0.10;0.10;;;;;;;;;;6172644;23;20364;-77
2023/03/11 02:17:33;;;;;;;0.20;0.20;;;;;;;;;;6171640;23;20009;-78
2023/03/11 02:20:32;;;;;;;0.20;0.20;;;;;;;;;;6172926;23;20225;-77
2023/03/11 02:23:20;;;;;;;0.13;0.13;;;;;;;;;;6172783;23;20115;-77
2023/03/11 02:26:15;;;;;;;0.20;0.20;;;;;;;;;;6172301;23;20055;-78
2023/03/11 02:29:03;;;;;;;0.17;0.17;;;;;;;;;;6172945;23;20094;-77
2023/03/11 02:31:49;;;;;;;0.10;0.10;;;;;;;;;;6172084;23;20532;-78
2023/03/11 02:34:38;;;;;;;0.20;0.20;;;;;;;;;;6151808;23;20440;-77
2023/03/11 02:37:25;;;;;;;0.20;0.20;;;;;;;;;;6173799;23;20489;-77
2023/03/11 02:40:17;;;;;;;0.20;0.20;;;;;;;;;;6172539;23;20012;-77
2023/03/11 02:43:06;;;;;;;0.20;0.20;;;;;;;;;;6171909;23;20012;-76
2023/03/11 02:45:53;;;;;;;0.20;0.20;;;;;;;;;;6172978;23;20280;-77
2023/03/11 02:48:39;;;;;;;0.10;0.10;;;;;;;;;;6171938;23;20478;-76
2023/03/11 02:51:25;;;;;;;0.20;0.20;;;;;;;;;;6171097;23;20087;-76
2023/03/11 02:54:11;;;;;;;0.20;0.20;;;;;;;;;;6193245;23;20023;-77
2023/03/11 02:56:57;;;;;;;0.10;0.10;;;;;;;;;;6173347;23;20009;-76
2023/03/11 02:59:45;;;;;;;0.20;0.20;;;;;;;;;;6174153;23;20012;-77
2023/03/11 03:02:32;;;;;;;0.20;0.20;;;;;;;;;;6174730;23;20076;-76
2023/03/11 03:05:19;;;;;;;0.10;0.10;;;;;;;;;;6195284;23;20009;-77
2023/03/11 03:08:05;;;;;;;0.10;0.10;;;;;;;;;;6153687;23;20404;-77
2023/03/11 03:10:52;;;;;;;0.10;0.10;;;;;;;;;;6173839;23;20102;-76
2023/03/11 03:13:37;;;;;;;0.20;0.20;;;;;;;;;;6173687;23;20070;-76
2023/03/11 03:16:24;;;;;;;0.20;0.20;;;;;;;;;;6175198;23;20008;-77
2023/03/11 03:19:09;;;;;;;0.20;0.20;;;;;;;;;;6174154;23;20180;-77
2023/03/11 03:21:55;;;;;;;0.10;0.10;;;;;;;;;;6173523;23;20078;-77
2023/03/11 03:24:43;;;;;;;0.10;0.10;;;;;;;;;;6173697;23;20008;-77
2023/03/11 03:27:29;;;;;;;0.20;0.20;;;;;;;;;;6196655;23;20008;-77
2023/03/11 03:30:15;;;;;;;0.20;0.20;;;;;;;;;;6172713;23;20517;-76
2023/03/11 03:33:01;;;;;;;0.20;0.20;;;;;;;;;;6174566;23;20335;-77
2023/03/11 03:35:49;;;;;;;0.10;0.10;;;;;;;;;;6173910;23;20450;-77
2023/03/11 03:38:39;;;;;;;0.20;0.20;;;;;;;;;;6172874;23;20020;-77
2023/03/11 03:41:27;;;;;;;0.15;0.15;;;;;;;;;;6175568;23;20385;-77
2023/03/11 03:44:13;;;;;;;0.20;0.20;;;;;;;;;;6173437;23;20035;-77
2023/03/11 03:47:01;;;;;;;0.13;0.13;;;;;;;;;;6195266;23;20024;-77
2023/03/11 03:49:49;;;;;;;0.20;0.20;;;;;;;;;;6153414;23;20441;-77
2023/03/11 03:52:35;;;;;;;0.20;0.20;;;;;;;;;;6197058;23;20020;-77
2023/03/11 03:55:21;;;;;;;0.10;0.10;;;;;;;;;;6174021;23;20012;-77
2023/03/11 03:58:07;;;;;;;0.13;0.13;;;;;;;;;;6174023;23;20414;-77
2023/03/11 04:00:56;;;;;;;0.20;0.20;;;;;;;;;;6172512;23;20025;-77
2023/03/11 04:03:41;;;;;;;0.20;0.20;;;;;;;;;;6173337;23;20012;-79
2023/03/11 04:06:33;;;;;;;0.20;0.20;;;;;;;;;;6196759;23;20082;-76
2023/03/11 04:09:22;;;;;;;0.20;0.20;;;;;;;;;;6194607;23;20139;-76
2023/03/11 04:12:16;;;;;;;0.20;0.20;;;;;;;;;;6173855;23;20020;-76
2023/03/11 04:15:02;;;;;;;0.20;0.20;;;;;;;;;;6173696;23;20107;-76
2023/03/11 04:17:48;;;;;;;0.20;0.20;;;;;;;;;;6152482;23;20497;-75
2023/03/11 04:20:37;;;;;;;0.20;0.20;;;;;;;;;;6154906;23;20066;-76
2023/03/11 04:23:23;;;;;;;0.20;0.20;;;;;;;;;;6175532;23;20012;-76
2023/03/11 04:26:09;;;;;;;0.20;0.20;;;;;;;;;;6153494;23;20395;-76
2023/03/11 04:28:56;;;;;;;0.20;0.20;;;;;;;;;;6172830;23;20023;-76
2023/03/11 04:31:44;;;;;;;0.10;0.10;;;;;;;;;;6173126;23;20387;-76
2023/03/11 04:34:30;;;;;;;0.20;0.20;;;;;;;;;;6173762;23;20426;-76
2023/03/11 04:37:16;;;;;;;0.20;0.20;;;;;;;;;;6196722;23;20016;-76
2023/03/11 04:40:04;;;;;;;0.20;0.20;;;;;;;;;;6173818;23;20054;-76
2023/03/11 04:42:53;;;;;;;0.20;0.20;;;;;;;;;;6172929;23;20012;-76
2023/03/11 04:45:43;;;;;;;0.20;0.20;;;;;;;;;;6173600;23;20461;-76
2023/03/11 04:48:30;;;;;;;0.10;0.10;;;;;;;;;;6173071;23;20037;-76
2023/03/11 04:51:16;;;;;;;0.17;0.17;;;;;;;;;;6195206;23;20024;-76
2023/03/11 04:54:02;;;;;;;0.20;0.20;;;;;;;;;;6173079;23;20016;-76
2023/03/11 04:56:49;;;;;;;0.20;0.20;;;;;;;;;;6171988;23;20113;-76
2023/03/11 04:59:35;;;;;;;0.20;0.20;;;;;;;;;;6172932;23;20342;-76
2023/03/11 05:02:22;;;;;;;0.10;0.10;;;;;;;;;;6154741;23;20431;-76
2023/03/11 05:05:13;;;;;;;0.20;0.20;;;;;;;;;;6173993;23;20043;-76
2023/03/11 05:08:00;;;;;;;0.20;0.20;;;;;;;;;;6174301;23;20413;-76
2023/03/11 05:10:47;;;;;;;0.10;0.10;;;;;;;;;;6173519;23;20020;-76
2023/03/11 05:13:33;;;;;;;0.20;0.20;;;;;;;;;;6176010;23;20035;-76
2023/03/11 05:16:20;;;;;;;0.20;0.20;;;;;;;;;;6175282;23;20363;-76
2023/03/11 05:19:29;;;;;;;0.10;0.10;;;;;;;;;;6173728;23;20044;-76
2023/03/11 05:22:14;;;;;;;0.20;0.20;;;;;;;;;;6176114;23;20009;-76
2023/03/11 05:25:00;;;;;;;0.20;0.20;;;;;;;;;;6172671;23;20095;-76
2023/03/11 05:27:47;;;;;;;0.20;0.20;;;;;;;;;;6174934;23;20009;-76
2023/03/11 05:30:37;;;;;;;0.20;0.20;;;;;;;;;;6175141;23;20024;-76
2023/03/11 05:33:22;;;;;;;0.20;0.20;;;;;;;;;;6175050;23;20012;-75
2023/03/11 05:36:10;;;;;;;0.20;0.20;;;;;;;;;;6174173;23;20092;-76
2023/03/11 05:38:59;;;;;;;0.20;0.20;;;;;;;;;;6177612;23;20182;-75
2023/03/11 05:41:44;;;;;;;0.20;0.20;;;;;;;;;;6179118;23;20047;-76
2023/03/11 05:44:31;;;;;;;0.10;0.10;;;;;;;;;;6175612;23;20015;-77
2023/03/11 05:47:19;;;;;;;0.10;0.10;;;;;;;;;;6175518;23;20111;-76
2023/03/11 05:50:07;;;;;;;0.20;0.20;;;;;;;;;;6175620;23;20017;-76
2023/03/11 05:52:53;;;;;;;0.10;0.10;;;;;;;;;;6183561;23;20299;-76
2023/03/11 05:55:41;;;;;;;0.17;0.17;;;;;;;;;;6200036;23;20490;-76
2023/03/11 05:58:28;;;;;;;0.15;0.15;;;;;;;;;;6195863;23;20370;-77
2023/03/11 06:01:15;;;;;;;0.20;0.20;;;;;;;;;;6186452;23;20807;-77
2023/03/11 06:04:01;;;;;;;0.20;0.20;;;;;;;;;;6165851;23;20021;-76
2023/03/11 06:06:49;;;;;;;0.20;0.20;;;;;;;;;;6167244;23;20031;-78
2023/03/11 06:09:37;;;;;;;0.10;0.10;;;;;;;;;;6165650;23;20715;-77
2023/03/11 06:12:26;;;;;;;0.20;0.20;;;;;;;;;;6165033;23;20021;-76
2023/03/11 06:15:29;;;;;;;0.10;0.10;;;;;;;;;;6166081;23;20450;-77
2023/03/11 06:18:14;;;;;;;0.20;0.20;;;;;;;;;;6165683;23;20041;-77
2023/03/11 06:21:01;;;;;;;0.10;0.10;;;;;;;;;;6165749;23;20070;-76
2023/03/11 06:23:47;;;;;;;0.20;0.20;;;;;;;;;;6165109;23;20540;-77
2023/03/11 06:26:33;;;;;;;0.20;0.20;;;;;;;;;;6166332;23;20024;-77
2023/03/11 06:29:23;;;;;;;0.20;0.20;;;;;;;;;;6146123;23;20092;-77
2023/03/11 06:32:09;;;;;;;0.20;0.20;;;;;;;;;;6192195;23;20008;-77
2023/03/11 06:34:55;;;;;;;0.13;0.13;;;;;;;;;;6200252;23;20050;-77
2023/03/11 06:37:41;;;;;;;0.20;0.20;;;;;;;;;;6201683;23;20048;-77
2023/03/11 06:40:27;;;;;;;0.20;0.20;;;;;;;;;;6198672;23;20423;-77
2023/03/11 06:43:13;;;;;;;0.20;0.20;;;;;;;;;;6199688;23;20020;-77
2023/03/11 06:46:06;;;;;;;0.10;0.10;;;;;;;;;;6198478;23;20035;-77
2023/03/11 06:48:53;;;;;;;0.20;0.20;;;;;;;;;;6201023;23;20123;-77
2023/03/11 06:51:41;;;;;;;0.20;0.20;;;;;;;;;;6201075;23;20334;-77
2023/03/11 06:54:30;;;;;;;0.20;0.20;;;;;;;;;;6176768;23;20009;-77
2023/03/11 06:57:16;;;;;;;0.20;0.20;;;;;;;;;;6174950;23;20012;-77
2023/03/11 07:00:06;;;;;;;0.10;0.10;;;;;;;;;;6176165;23;20028;-77
2023/03/11 07:02:55;;;;;;;0.20;0.20;;;;;;;;;;6175392;23;20176;-77
2023/03/11 07:05:45;;;;;;;0.20;0.20;;;;;;;;;;6175942;23;20024;-77
2023/03/11 07:08:31;;;;;;;0.20;0.20;;;;;;;;;;6176443;23;20027;-77
2023/03/11 07:11:19;;;;;;;0.20;0.20;;;;;;;;;;6197197;23;20044;-77
2023/03/11 07:14:07;;;;;;;0.20;0.20;;;;;;;;;;6176349;23;20446;-77
2023/03/11 07:16:56;;;;;;;0.20;0.20;;;;;;;;;;6176582;23;20092;-77
2023/03/11 07:20:08;;;;;;;0.20;0.20;;;;;;;;;;6196955;23;20016;-77
2023/03/11 07:22:56;;;;;;;0.20;0.20;;;;;;;;;;6197325;23;20042;-77
2023/03/11 07:25:45;;;;;;;0.20;0.20;;;;;;;;;;6197707;23;20512;-78
2023/03/11 07:28:31;;;;;;;0.20;0.20;;;;;;;;;;6197572;23;20532;-78
2023/03/11 07:31:18;;;;;;;0.20;0.20;;;;;;;;;;6198669;23;20032;-77
2023/03/11 07:34:09;;;;;;;0.20;0.20;;;;;;;;;;6199714;23;20074;-77
2023/03/11 07:36:55;;;;;;;;;;;;;;;;;;6199563;23;20008;-78
2023/03/11 07:39:42;;;;;;;0.20;0.20;;;;;;;;;;6200284;23;20726;-78
2023/03/11 07:42:28;;;;;;;0.10;0.10;;;;;;;;;;6198800;23;20083;-77
2023/03/11 07:45:14;;;;;;;0.20;0.20;;;;;;;;;;6198424;23;20016;-78
2023/03/11 07:47:59;;;;;;;0.10;0.10;;;;;;;;;;6178978;23;20025;-77
2023/03/11 07:50:45;;;;;;;0.20;0.20;;;;;;;;;;6198402;23;20027;-77
2023/03/11 07:53:31;;;;;;;0.20;0.20;;;;;;;;;;6193722;23;20087;-77
2023/03/11 07:56:18;;;;;;;0.20;0.20;;;;;;;;;;6196586;23;20047;-78
2023/03/11 07:59:04;;;;;;;0.20;0.20;;;;;;;;;;6197660;23;20430;-78
2023/03/11 08:01:50;;;;;;;0.30;0.30;;;;;;;;;;6177852;23;20021;-77
2023/03/11 08:04:36;;;;;;;0.20;0.20;;;;;;;;;;6166006;23;20021;-77
2023/03/11 08:07:21;;;;;;;0.20;0.20;;;;;;;;;;6168612;23;20751;-78
2023/03/11 08:10:08;;;;;;;0.20;0.20;;;;;;;;;;6166315;23;20342;-77
2023/03/11 08:12:53;;;;;;;0.20;0.20;;;;;;;;;;6168632;23;20020;-77
2023/03/11 08:15:39;;;;;;;0.20;0.20;;;;;;;;;;6168646;23;20104;-77
2023/03/11 08:18:25;;;;;;;0.20;0.20;;;;;;;;;;6166779;23;20009;-77
2023/03/11 08:21:11;;;;;;;0.20;0.20;;;;;;;;;;6167804;23;20067;-77
2023/03/11 08:23:58;;;;;;;0.20;0.20;;;;;;;;;;6167809;23;20472;-77
2023/03/11 08:26:44;;;;;;;0.20;0.20;;;;;;;;;;6168284;23;20100;-77
2023/03/11 08:29:30;;;;;;;0.20;0.20;;;;;;;;;;6167789;23;20020;-77
2023/03/11 08:32:16;;;;;;;0.20;0.20;;;;;;;;;;6195858;23;20016;-77
2023/03/11 08:35:02;;;;;;;0.20;0.20;;;;;;;;;;6198006;23;20718;-77
2023/03/11 08:37:48;;;;;;;0.20;0.20;;;;;;;;;;6196642;23;20092;-77
2023/03/11 08:40:34;;;;;;;0.20;0.20;;;;;;;;;;6196983;23;20477;-77
2023/03/11 08:43:19;;;;;;;0.20;0.20;;;;;;;;;;6198289;23;20015;-77
2023/03/11 08:46:05;;;;;;;0.20;0.20;;;;;;;;;;6199210;23;20280;-77
2023/03/11 08:48:51;;;;;;;0.22;0.22;;;;;;;;;;6197835;23;20043;-78
2023/03/11 08:51:37;;;;;;;0.20;0.20;;;;;;;;;;6198069;23;20493;-78
2023/03/11 08:54:23;;;;;;;0.10;0.10;;;;;;;;;;6198565;23;20020;-78
2023/03/11 08:57:08;;;;;;;0.20;0.20;;;;;;;;;;6196547;23;20062;-78
2023/03/11 08:59:57;;;;;;;0.10;0.10;;;;;;;;;;6197363;23;20024;-78
2023/03/11 09:02:42;;;;;;;0.20;0.20;;;;;;;;;;6175936;23;20741;-78
2023/03/11 09:05:28;;;;;;;0.20;0.20;;;;;;;;;;6196105;23;20104;-78
2023/03/11 09:08:14;;;;;;;0.20;0.20;;;;;;;;;;6199309;23;20397;-78
2023/03/11 09:10:59;;;;;;;0.20;0.20;;;;;;;;;;6197539;23;20359;-78
2023/03/11 09:13:48;;;;;;;0.20;0.20;;;;;;;;;;6198761;23;20017;-78
2023/03/11 09:16:34;;;;;;;0.20;0.20;;;;;;;;;;6198159;23;20013;-78
2023/03/11 09:19:20;;;;;;;0.10;0.10;;;;;;;;;;6195869;23;20014;-78
2023/03/11 09:22:05;;;;;;;0.20;0.20;;;;;;;;;;6197609;23;20016;-78
2023/03/11 09:24:51;;;;;;;0.10;0.10;;;;;;;;;;6196909;23;20091;-78
2023/03/11 09:27:37;;;;;;;0.20;0.20;;;;;;;;;;6174910;23;20016;-78
2023/03/11 09:30:23;;;;;;;0.20;0.20;;;;;;;;;;6194397;23;20019;-78
2023/03/11 09:33:10;;;;;;;0.20;0.20;;;;;;;;;;6175166;23;20013;-78
2023/03/11 09:35:59;;;;;;;0.20;0.20;;;;;;;;;;6200154;23;20018;-78
2023/03/11 09:38:45;;;;;;;0.20;0.20;;;;;;;;;;6197940;23;20342;-78
2023/03/11 09:41:45;;;;;;;0.20;0.20;;;;;;;;;;6198608;23;20658;-77
2023/03/11 09:44:49;;;;;;;0.20;0.20;;;;;;;;;;6198107;23;20384;-78
2023/03/11 09:47:47;;;;;;;0.20;0.20;;;;;;;;;;6197210;23;20017;-78
2023/03/11 09:50:46;;;;;;;0.20;0.20;;;;;;;;;;6198703;23;20127;-78
2023/03/11 09:53:42;;;;;;;0.20;0.20;;;;;;;;;;6197537;23;20443;-78
2023/03/11 09:56:29;;;;;;;0.20;0.20;;;;;;;;;;6196383;23;20363;-78
2023/03/11 09:59:17;;;;;;;0.20;0.20;;;;;;;;;;6196892;23;20020;-78
2023/03/11 10:02:03;;;;;;;0.20;0.20;;;;;;;;;;6196952;23;20090;-78
2023/03/11 10:05:02;;;;;;;0.20;0.20;;;;;;;;;;6127111;23;20196;-78
2023/03/11 10:07:55;;;;;;;0.20;0.20;;;;;;;;;;6196809;23;20396;-79
2023/03/11 10:10:45;;;;;;;0.20;0.20;;;;;;;;;;6197278;23;20056;-79
2023/03/11 10:13:38;;;;;;;0.20;0.20;;;;;;;;;;6199718;23;20345;-78
2023/03/11 10:16:30;;;;;;;0.20;0.20;;;;;;;;;;6199317;23;20585;-78
2023/03/11 10:19:36;;;;;;;0.20;0.20;;;;;;;;;;6176490;23;20100;-78
2023/03/11 10:22:37;;;;;;;0.20;0.20;;;;;;;;;;6198795;23;20016;-78
2023/03/11 10:25:25;;;;;;;0.20;0.20;;;;;;;;;;6174669;23;20067;-78
2023/03/11 10:28:12;;;;;;;0.20;0.20;;;;;;;;;;6198758;23;20253;-78
2023/03/11 10:31:27;;;;;;;0.20;0.20;;;;;;;;;;6197123;23;20375;-78
2023/03/11 10:34:14;;;;;;;0.20;0.20;;;;;;;;;;6089037;23;20032;-78
2023/03/11 10:37:12;;;;;;;0.10;0.10;;;;;;;;;;6176856;23;20013;-78
2023/03/11 10:40:04;;;;;;;0.20;0.20;;;;;;;;;;6197792;23;20067;-78
2023/03/11 10:42:55;;;;;;;0.20;0.20;;;;;;;;;;6198738;23;20044;-79
2023/03/11 10:45:43;;;;;;;0.20;0.20;;;;;;;;;;6176405;23;20016;-79
2023/03/11 10:48:29;;;;;;;0.20;0.20;;;;;;;;;;6172715;23;20062;-79
2023/03/11 10:51:17;;;;;;;0.20;0.20;;;;;;;;;;6198860;23;20055;-79
2023/03/11 10:54:03;;;;;;;0.40;0.35;;;;;;;;;;6174653;23;20502;-79
2023/03/11 10:57:14;;;;;;;0.10;0.10;;;;;;;;;;6196563;23;20024;-79
2023/03/11 11:00:00;;;;;;;;;;;;;;;;;;6162806;23;20017;-79
2023/03/11 11:02:50;;;;;;;0.40;0.30;;;;;;;;;;6195557;23;19942;-79
2023/03/11 11:05:36;;;;;;;0.20;0.20;;;;;;;;;;6195012;23;20401;-80
2023/03/11 11:08:22;;;;;;;0.30;0.30;;;;;;;;;;6195626;23;20017;-77
2023/03/11 11:11:19;;;;;;;0.20;0.20;;;;;;;;;;6174301;23;20020;-76
2023/03/11 11:14:06;;;;;;;0.10;0.10;;;;;;;;;;6175327;23;20146;-77
2023/03/11 11:16:52;;;;;;;0.10;0.10;;;;;;;;;;6195378;23;20092;-76
2023/03/11 11:19:42;;;;;;;0.10;0.10;;;;;;;;;;6198669;23;20086;-79
2023/03/11 11:22:30;;;;;;;0.20;0.20;;;;;;;;;;6196792;23;20017;-79
2023/03/11 11:25:28;;;;;;;0.20;0.20;;;;;;;;;;6195236;23;20394;-79
2023/03/11 11:28:16;;;;;;;0.20;0.20;;;;;;;;;;6196900;23;20048;-78
2023/03/11 11:31:03;;;;;;;0.20;0.20;;;;;;;;;;6175211;23;20029;-78
2023/03/11 11:33:50;;;;;;;0.30;0.30;;;;;;;;;;6197238;23;20096;-79
2023/03/11 11:36:38;;;;;;;0.20;0.20;;;;;;;;;;6195381;23;20023;-78
2023/03/11 11:39:25;;;;;;;0.30;0.30;;;;;;;;;;6195654;23;20138;-78
2023/03/11 11:42:13;;;;;;;0.20;0.20;;;;;;;;;;6175276;23;20028;-76
2023/03/11 11:45:28;;;;;;;0.20;0.20;;;;;;;;;;6195851;23;20016;-76
2023/03/11 11:48:34;;;;;;;0.20;0.20;;;;;;;;;;6187620;23;20017;-77
2023/03/11 11:51:22;;;;;;;0.20;0.20;;;;;;;;;;6174638;23;20024;-77
2023/03/11 11:54:23;;;;;;;0.20;0.20;;;;;;;;;;5048478;27;1267182;-77
2023/03/11 11:57:13;;;;;;;0.20;0.20;;;;;;;;;;5083144;28;20497;-77
2023/03/11 12:00:00;;;;;;;0.10;0.10;;;;;;;;;;5071263;28;20568;-77
2023/03/11 12:02:52;;;;;;;0.10;0.10;;;;;;;;;;5092112;28;20369;-77
2023/03/11 12:05:56;;;;;;;0.10;0.10;;;;;;;;;;5083310;28;20115;-77
2023/03/11 12:08:46;;;;;;;0.20;0.20;;;;;;;;;;5090382;28;20123;-78
2023/03/11 12:11:55;;;;;;;0.10;0.10;;;;;;;;;;5091379;28;20043;-78
2023/03/11 12:14:41;;;;;;;0.10;0.10;;;;;;;;;;5093633;28;20032;-78
2023/03/11 12:17:27;;;;;;;0.20;0.20;;;;;;;;;;5093583;28;20032;-78
2023/03/11 12:20:16;;;;;;;0.20;0.20;;;;;;;;;;5094979;28;20044;-78
2023/03/11 12:23:20;;;;;;;0.20;0.20;;;;;;;;;;5093627;28;20475;-78
2023/03/11 12:26:14;;;;;;;0.20;0.20;;;;;;;;;;5093035;28;20040;-78
2023/03/11 12:29:10;;;;;;;0.20;0.20;;;;;;;;;;5093078;28;20502;-78
2023/03/11 12:31:56;;;;;;;0.20;0.20;;;;;;;;;;5091522;27;20028;-78
2023/03/11 12:34:41;;;;;;;0.20;0.20;;;;;;;;;;5094191;28;20036;-78
2023/03/11 12:37:27;;;;;;;0.10;0.10;;;;;;;;;;5093038;28;20039;-78
2023/03/11 12:40:31;;;;;;;0.20;0.20;;;;;;;;;;5094832;28;20152;-78
2023/03/11 12:43:29;;;;;;;0.20;0.20;;;;;;;;;;5094175;28;20093;-79
2023/03/11 12:46:18;;;;;;;0.30;0.30;;;;;;;;;;5095356;28;20035;-78
2023/03/11 12:49:09;;;;;;;0.20;0.20;;;;;;;;;;5092349;28;20027;-78
2023/03/11 12:52:15;;;;;;;0.20;0.20;;;;;;;;;;5092699;28;20043;-78
2023/03/11 12:55:01;;;;;;;0.10;0.10;;;;;;;;;;5114910;27;20047;-78
2023/03/11 12:57:47;;;;;;;0.10;0.10;;;;;;;;;;5114222;27;20054;-78
2023/03/11 13:00:45;;;;;;;0.10;0.10;;;;;;;;;;5114136;27;20074;-78
2023/03/11 13:03:44;;;;;;;0.10;0.10;;;;;;;;;;5110920;28;20191;-78
2023/03/11 13:06:45;;;;;;;0.10;0.10;;;;;;;;;;5097882;28;20033;-78
2023/03/11 13:09:31;;;;;;;0.20;0.20;;;;;;;;;;5096944;28;20111;-78
2023/03/11 13:12:35;;;;;;;0.20;0.20;;;;;;;;;;5099684;28;20112;-78
2023/03/11 13:15:21;;;;;;;0.20;0.20;;;;;;;;;;5101469;28;20085;-77
2023/03/11 13:18:17;;;;;;;0.10;0.10;;;;;;;;;;5100231;28;20043;-77
2023/03/11 13:21:03;;;;;;;0.20;0.20;;;;;;;;;;5099743;28;20038;-77
2023/03/11 13:23:49;;;;;;;0.20;0.20;;;;;;;;;;5096540;28;20027;-77
2023/03/11 13:26:41;;;;;;;0.10;0.10;;;;;;;;;;5096812;28;20108;-77
2023/03/11 13:29:36;;;;;;;0.20;0.20;;;;;;;;;;5092936;28;20423;-77
2023/03/11 13:32:28;;;;;;;0.10;0.10;;;;;;;;;;5096787;28;20620;-78
2023/03/11 13:35:32;;;;;;;0.10;0.10;;;;;;;;;;5100209;28;20026;-78
2023/03/11 13:38:42;;;;;;;0.20;0.20;;;;;;;;;;5099119;28;20127;-78
2023/03/11 13:41:35;;;;;;;0.20;0.20;;;;;;;;;;5101020;28;20416;-78
2023/03/11 13:44:38;;;;;;;0.10;0.10;;;;;;;;;;5101174;28;20047;-77
2023/03/11 13:47:25;;;;;;;0.20;0.20;;;;;;;;;;5112693;27;20112;-78
2023/03/11 13:50:17;;;;;;;0.20;0.20;;;;;;;;;;5099825;28;20034;-78
2023/03/11 13:53:06;;;;;;;0.20;0.20;;;;;;;;;;5100337;28;20358;-79
2023/03/11 13:55:52;;;;;;;0.20;0.20;;;;;;;;;;5113751;27;20514;-79
2023/03/11 13:58:38;;;;;;;0.10;0.10;;;;;;;;;;5100062;28;20338;-78
2023/03/11 14:01:24;;;;;;;0.20;0.20;;;;;;;;;;5099407;28;20100;-79
2023/03/11 14:04:11;;;;;;;0.10;0.10;;;;;;;;;;5096686;28;20142;-79
2023/03/11 14:06:57;;;;;;;0.13;0.13;;;;;;;;;;5097449;28;20039;-78
2023/03/11 14:09:43;;;;;;;0.10;0.10;;;;;;;;;;5096666;28;20039;-79
2023/03/11 14:12:30;;;;;;;0.20;0.20;;;;;;;;;;5098003;28;20067;-79
2023/03/11 14:15:25;;;;;;;0.20;0.20;;;;;;;;;;5099223;28;20154;-79
2023/03/11 14:18:24;;;;;;;0.20;0.20;;;;;;;;;;5099979;28;20114;-79
2023/03/11 14:21:17;;;;;;;0.10;0.10;;;;;;;;;;5098875;28;20480;-79
2023/03/11 14:24:03;;;;;;;0.10;0.10;;;;;;;;;;5110049;27;20047;-79
2023/03/11 14:26:52;;;;;;;0.30;0.30;;;;;;;;;;5096127;28;20024;-79
2023/03/11 14:29:39;;;;;;;0.10;0.10;;;;;;;;;;5096312;28;20476;-79
2023/03/11 14:32:27;;;;;;;0.10;0.10;;;;;;;;;;5099982;28;20089;-79
2023/03/11 14:35:19;;;;;;;0.10;0.10;;;;;;;;;;5096911;28;20039;-79
2023/03/11 14:38:19;;;;;;;0.10;0.10;;;;;;;;;;5098960;28;20204;-79
2023/03/11 14:41:05;;;;;;;0.10;0.10;;;;;;;;;;5098041;28;20087;-79
2023/03/11 14:43:52;;;;;;;0.20;0.20;;;;;;;;;;5098768;28;20031;-79
2023/03/11 14:46:38;;;;;;;0.10;0.10;;;;;;;;;;5100918;28;20039;-78
2023/03/11 14:49:23;;;;;;;0.20;0.20;;;;;;;;;;5100753;28;20034;-79
2023/03/11 14:52:20;;;;;;;0.10;0.10;;;;;;;;;;5098313;28;20036;-79
2023/03/11 14:55:11;;;;;;;0.10;0.10;;;;;;;;;;5095910;28;20092;-80
2023/03/11 14:58:01;;;;;;;0.40;0.40;;;;;;;;;;5096701;28;20040;-79
2023/03/11 15:01:10;;;;;;;0.30;0.30;;;;;;;;;;5097924;28;20744;-79
2023/03/11 15:04:00;;;;;;;0.40;0.40;;;;;;;;;;5097233;28;20459;-79
2023/03/11 15:06:46;;;;;;;0.30;0.30;;;;;;;;;;5095662;28;20032;-78
2023/03/11 15:09:32;;;;;;;0.40;0.32;;;;;;;;;;5094515;28;20381;-79
2023/03/11 15:12:32;;;;;;;0.30;0.30;;;;;;;;;;5097124;28;20321;-79
2023/03/11 15:15:26;;;;;;;0.10;0.10;;;;;;;;;;5098027;28;20282;-79
2023/03/11 15:18:19;;;;;;;0.10;0.10;;;;;;;;;;5095641;28;20028;-79
2023/03/11 15:21:16;;;;;;;0.15;0.15;;;;;;;;;;5096845;28;20036;-79
2023/03/11 15:24:05;;;;;;;0.10;0.10;;;;;;;;;;5097216;28;20074;-79
2023/03/11 15:26:59;;;;;;;0.22;0.22;;;;;;;;;;5096730;28;20040;-76
2023/03/11 15:29:50;;;;;;;0.10;0.10;;;;;;;;;;5098017;28;20035;-79
2023/03/11 15:32:40;;;;;;;0.20;0.20;;;;;;;;;;5095229;28;20307;-79
2023/03/11 15:35:27;;;;;;;0.15;0.15;;;;;;;;;;5082633;28;20088;-79
2023/03/11 15:38:23;;;;;;;0.10;0.10;;;;;;;;;;5096558;28;20063;-79
2023/03/11 15:41:09;;;;;;;0.15;0.15;;;;;;;;;;5097415;28;20039;-78
2023/03/11 15:44:00;;;;;;;0.10;0.10;;;;;;;;;;5082757;28;20039;-78
2023/03/11 15:46:46;;;;;;;0.10;0.10;;;;;;;;;;5096767;28;20039;-78
2023/03/11 15:49:32;;;;;;;0.20;0.20;;;;;;;;;;5097575;28;20480;-78
2023/03/11 15:52:18;;;;;;;0.10;0.10;;;;;;;;;;5063281;28;20483;-79
2023/03/11 15:55:04;;;;;;;0.10;0.10;;;;;;;;;;5082052;28;20028;-79
2023/03/11 15:57:53;;;;;;;0.20;0.20;;;;;;;;;;5096327;28;20031;-78
2023/03/11 16:00:45;;;;;;;0.10;0.10;;;;;;;;;;5095919;28;20572;-78
2023/03/11 16:03:30;;;;;;;0.10;0.10;;;;;;;;;;5095765;28;20036;-79
2023/03/11 16:06:16;;;;;;;0.10;0.10;;;;;;;;;;5095365;28;20039;-79
2023/03/11 16:09:02;;;;;;;0.13;0.13;;;;;;;;;;5077646;28;20453;-78
2023/03/11 16:11:47;;;;;;;0.10;0.10;;;;;;;;;;5094946;28;20035;-79
2023/03/11 16:14:33;;;;;;;0.10;0.10;;;;;;;;;;5095530;28;20071;-78
2023/03/11 16:17:19;;;;;;;0.10;0.10;;;;;;;;;;5094579;28;20436;-79
2023/03/11 16:20:08;;;;;;;0.10;0.10;;;;;;;;;;5079749;28;20087;-79
2023/03/11 16:22:57;;;;;;;0.10;0.10;;;;;;;;;;5082834;28;20032;-78
2023/03/11 16:25:43;;;;;;;0.20;0.20;;;;;;;;;;5093324;28;20032;-78
2023/03/11 16:28:28;;;;;;;0.10;0.10;;;;;;;;;;5097399;28;20035;-78
2023/03/11 16:31:14;;;;;;;0.10;0.10;;;;;;;;;;5095574;28;20036;-78
2023/03/11 16:34:00;;;;;;;0.20;0.20;;;;;;;;;;5096826;28;20082;-79
2023/03/11 16:36:45;;;;;;;0.20;0.20;;;;;;;;;;5083481;28;21053;-78
2023/03/11 16:39:31;;;;;;;0.10;0.10;;;;;;;;;;5097856;28;20483;-79
2023/03/11 16:42:20;;;;;;;0.10;0.10;;;;;;;;;;5083216;28;20165;-79
2023/03/11 16:45:06;;;;;;;0.10;0.10;;;;;;;;;;5101455;28;20042;-79
2023/03/11 16:47:52;;;;;;;0.10;0.10;;;;;;;;;;5102464;28;20053;-79
2023/03/11 16:50:37;;;;;;;0.10;0.10;;;;;;;;;;5085776;28;20031;-78
2023/03/11 16:53:25;;;;;;;0.10;0.10;;;;;;;;;;5063192;27;20054;-78